Time;durP1;ratioP1;P1;durP2;ratioP2;P2;SDS_P1;SDS_P2;PMS_P1;PMS_P2;Temp;Humidity;BMP_temperature;BMP_pressure;BME280_temperature;BME280_humidity;BME280_pressure;Samples;Min_cycle;Max_cycle;Signal;HPM_P1;HPM_P2
2023/05/27 00:00:20;;;;;;;9.25;2.83;;;10.70;99.90;;;;;;5032610;28;20080;-83
2023/05/27 00:02:47;;;;;;;3.95;2.08;;;10.60;99.90;;;;;;5046332;28;20067;-83
2023/05/27 00:05:15;;;;;;;3.25;1.77;;;10.60;99.90;;;;;;5050747;28;20052;-82
2023/05/27 00:07:43;;;;;;;7.28;1.98;;;10.40;99.90;;;;;;5050659;28;20057;-82
2023/05/27 00:10:11;;;;;;;3.63;1.90;;;10.30;99.90;;;;;;5032854;28;20048;-82
2023/05/27 00:12:39;;;;;;;8.52;2.22;;;10.20;99.90;;;;;;5047072;28;20079;-82
2023/05/27 00:15:07;;;;;;;3.45;1.98;;;10.10;99.90;;;;;;5032115;28;20115;-82
2023/05/27 00:17:36;;;;;;;4.05;1.98;;;9.90;99.90;;;;;;5032571;28;20080;-82
2023/05/27 00:20:07;;;;;;;7.25;1.77;;;9.80;99.90;;;;;;5030664;28;20044;-82
2023/05/27 00:22:37;;;;;;;7.00;1.83;;;9.80;99.90;;;;;;5029365;28;20520;-82
2023/05/27 00:25:07;;;;;;;3.28;1.77;;;9.70;99.90;;;;;;5050269;28;20130;-80
2023/05/27 00:27:35;;;;;;;5.22;1.88;;;9.60;99.90;;;;;;5033336;28;20067;-80
2023/05/27 00:30:03;;;;;;;5.07;1.70;;;9.50;99.90;;;;;;5030012;28;20099;-82
2023/05/27 00:32:35;;;;;;;5.68;1.50;;;9.50;99.90;;;;;;5035639;28;20049;-82
2023/05/27 00:35:03;;;;;;;3.03;1.63;;;9.40;99.90;;;;;;5035313;28;20139;-82
2023/05/27 00:37:31;;;;;;;7.43;1.92;;;9.40;99.90;;;;;;5067506;28;20091;-83
2023/05/27 00:39:59;;;;;;;5.15;2.22;;;9.30;99.90;;;;;;5038421;28;20041;-82
2023/05/27 00:42:28;;;;;;;4.50;2.00;;;9.30;99.90;;;;;;5018742;28;20084;-83
2023/05/27 00:44:56;;;;;;;6.00;2.03;;;9.30;99.90;;;;;;5034869;28;20072;-84
2023/05/27 00:47:28;;;;;;;6.53;2.45;;;9.30;99.90;;;;;;5029800;28;20096;-84
2023/05/27 00:49:55;;;;;;;5.55;2.13;;;9.30;99.90;;;;;;5048528;28;20049;-85
2023/05/27 00:52:23;;;;;;;3.70;2.20;;;9.20;99.90;;;;;;5037563;28;20122;-85
2023/05/27 00:54:56;;;;;;;5.30;2.53;;;9.30;99.90;;;;;;5018201;28;20445;-82
2023/05/27 00:57:25;;;;;;;3.35;1.65;;;9.30;99.90;;;;;;5049649;28;20501;-82
2023/05/27 00:59:54;;;;;;;5.40;1.88;;;9.30;99.90;;;;;;5052577;28;20045;-82
2023/05/27 01:02:22;;;;;;;4.88;1.80;;;9.30;99.90;;;;;;5053389;28;20587;-82
2023/05/27 01:04:50;;;;;;;5.20;1.92;;;9.40;99.90;;;;;;5052465;28;20098;-81
2023/05/27 01:07:26;;;;;;;3.05;1.58;;;9.40;99.90;;;;;;5034360;28;20056;-82
2023/05/27 01:10:01;;;;;;;6.18;2.00;;;9.40;99.90;;;;;;5028296;28;20049;-82
2023/05/27 01:12:38;;;;;;;4.43;2.33;;;9.50;99.90;;;;;;5052817;28;20579;-82
2023/05/27 01:15:10;;;;;;;5.95;1.85;;;9.50;99.90;;;;;;5030863;28;20103;-82
2023/05/27 01:17:42;;;;;;;9.07;2.78;;;9.50;99.90;;;;;;5040176;28;20052;-83
2023/05/27 01:20:13;;;;;;;4.72;2.08;;;9.60;99.90;;;;;;5042318;28;20040;-81
2023/05/27 01:22:44;;;;;;;5.57;2.22;;;9.60;99.90;;;;;;5052873;28;20057;-82
2023/05/27 01:25:12;;;;;;;3.47;2.03;;;9.60;99.90;;;;;;5032324;28;20040;-83
2023/05/27 01:27:42;;;;;;;4.57;2.05;;;9.70;99.90;;;;;;5015081;28;20037;-81
2023/05/27 01:30:11;;;;;;;5.30;2.65;;;9.70;99.90;;;;;;5044753;28;20144;-83
2023/05/27 01:32:45;;;;;;;6.03;2.28;;;9.80;99.90;;;;;;5051453;28;20045;-82
2023/05/27 01:35:22;;;;;;;4.43;2.28;;;9.80;99.90;;;;;;5052133;28;20510;-84
2023/05/27 01:37:53;;;;;;;8.43;3.05;;;9.90;99.90;;;;;;5051893;28;20063;-82
2023/05/27 01:40:23;;;;;;;5.30;2.10;;;9.90;99.90;;;;;;5017497;28;20180;-82
2023/05/27 01:42:51;;;;;;;4.18;1.92;;;10.00;99.90;;;;;;5035522;28;20045;-81
2023/05/27 01:45:19;;;;;;;4.22;1.95;;;10.00;99.90;;;;;;5018200;28;20458;-84
2023/05/27 01:47:46;;;;;;;3.90;1.90;;;10.10;99.90;;;;;;5052047;28;20053;-83
2023/05/27 01:50:14;;;;;;;5.05;1.77;;;10.10;99.90;;;;;;5032252;28;20049;-84
2023/05/27 01:52:41;;;;;;;5.13;2.25;;;10.10;99.90;;;;;;5049621;28;20817;-82
2023/05/27 01:55:12;;;;;;;2.53;1.38;;;10.10;99.90;;;;;;5033644;28;20068;-83
2023/05/27 01:57:39;;;;;;;3.33;1.80;;;10.10;99.90;;;;;;5051683;28;20049;-83
2023/05/27 02:00:10;;;;;;;1.67;1.38;;;10.10;99.90;;;;;;5016806;28;20045;-82
2023/05/27 02:02:45;;;;;;;3.67;1.92;;;10.00;99.90;;;;;;5056799;28;20059;-81
2023/05/27 02:05:15;;;;;;;3.80;1.63;;;10.00;99.90;;;;;;5049652;28;20053;-81
2023/05/27 02:07:43;;;;;;;4.40;1.52;;;10.00;99.90;;;;;;5052318;28;20049;-81
2023/05/27 02:10:12;;;;;;;2.03;1.58;;;10.00;99.90;;;;;;5042800;28;20045;-82
2023/05/27 02:12:40;;;;;;;4.82;1.77;;;10.00;99.90;;;;;;5034688;28;20544;-82
2023/05/27 02:15:09;;;;;;;2.92;1.50;;;10.00;99.90;;;;;;5033464;28;20505;-83
2023/05/27 02:17:38;;;;;;;7.10;1.63;;;10.00;99.90;;;;;;5040945;28;20144;-83
2023/05/27 02:20:08;;;;;;;3.22;1.33;;;10.00;99.90;;;;;;5035306;28;20162;-82
2023/05/27 02:22:40;;;;;;;3.45;1.35;;;10.10;99.90;;;;;;5017657;28;20083;-82
2023/05/27 02:25:08;;;;;;;2.35;1.65;;;10.10;99.90;;;;;;5016821;28;20445;-84
2023/05/27 02:27:37;;;;;;;3.55;1.40;;;10.20;99.90;;;;;;5050855;28;22262;-84
2023/05/27 02:30:05;;;;;;;5.60;1.40;;;10.30;99.90;;;;;;5052308;28;20067;-84
2023/05/27 02:32:33;;;;;;;3.92;1.52;;;10.30;99.90;;;;;;5051908;28;20060;-83
2023/05/27 02:35:00;;;;;;;3.33;2.13;;;10.40;99.90;;;;;;5051432;28;20080;-83
2023/05/27 02:37:30;;;;;;;4.57;1.42;;;10.60;99.90;;;;;;5057687;28;20044;-83
2023/05/27 02:39:58;;;;;;;8.18;1.75;;;10.70;99.90;;;;;;5051674;28;20483;-83
2023/05/27 02:42:27;;;;;;;6.47;1.48;;;10.80;99.90;;;;;;5050723;28;20080;-85
2023/05/27 02:44:56;;;;;;;2.47;1.50;;;10.90;99.90;;;;;;5051645;28;20563;-84
2023/05/27 02:47:24;;;;;;;3.67;1.50;;;10.90;99.90;;;;;;5023246;28;20535;-83
2023/05/27 02:49:52;;;;;;;4.07;1.65;;;10.90;99.90;;;;;;5065875;28;20052;-82
2023/05/27 02:52:19;;;;;;;1.95;1.40;;;10.90;99.90;;;;;;5050095;28;20131;-82
2023/05/27 02:54:47;;;;;;;2.95;1.33;;;10.90;99.90;;;;;;5027387;28;20051;-82
2023/05/27 02:57:14;;;;;;;4.72;1.38;;;10.90;99.90;;;;;;5037213;28;20095;-83
2023/05/27 02:59:42;;;;;;;3.83;1.60;;;10.90;99.90;;;;;;5049824;28;20080;-84
2023/05/27 03:02:11;;;;;;;3.15;1.40;;;10.80;99.90;;;;;;5052553;28;20059;-84
2023/05/27 03:04:39;;;;;;;1.40;1.25;;;10.80;99.90;;;;;;5036172;28;20126;-87
2023/05/27 03:07:06;;;;;;;3.17;1.75;;;10.70;99.90;;;;;;5051831;28;20072;-84
2023/05/27 03:09:35;;;;;;;2.53;1.40;;;10.70;99.90;;;;;;5027105;28;20513;-84
2023/05/27 03:12:03;;;;;;;3.22;1.52;;;10.60;99.90;;;;;;5034684;28;20045;-82
2023/05/27 03:14:33;;;;;;;3.25;1.48;;;10.50;99.90;;;;;;5056319;28;20049;-83
2023/05/27 03:17:00;;;;;;;3.10;1.45;;;10.50;99.90;;;;;;5049938;28;20464;-82
2023/05/27 03:19:29;;;;;;;8.48;1.95;;;10.40;99.90;;;;;;5033699;28;20055;-83
2023/05/27 03:21:57;;;;;;;5.57;1.08;;;10.30;99.90;;;;;;5049405;28;20049;-82
2023/05/27 03:24:27;;;;;;;2.42;1.60;;;10.30;99.90;;;;;;5034749;28;20060;-83
2023/05/27 03:26:55;;;;;;;4.40;1.90;;;10.30;99.90;;;;;;5047839;28;20052;-84
2023/05/27 03:29:23;;;;;;;4.82;1.20;;;10.30;99.90;;;;;;5045409;28;20071;-83
2023/05/27 03:31:50;;;;;;;5.55;1.30;;;10.20;99.90;;;;;;5034531;28;20063;-83
2023/05/27 03:34:20;;;;;;;2.90;1.45;;;10.20;99.90;;;;;;5032215;28;20877;-83
2023/05/27 03:36:50;;;;;;;3.10;1.58;;;10.20;99.90;;;;;;5048078;28;20101;-84
2023/05/27 03:39:20;;;;;;;3.10;1.70;;;10.20;99.90;;;;;;5051774;28;20082;-83
2023/05/27 03:41:54;;;;;;;3.33;1.40;;;10.20;99.90;;;;;;5039851;28;20524;-84
2023/05/27 03:44:23;;;;;;;2.13;1.42;;;10.30;99.90;;;;;;5038555;28;20053;-84
2023/05/27 03:46:51;;;;;;;2.45;1.13;;;10.30;99.90;;;;;;5045534;28;20049;-83
2023/05/27 03:49:20;;;;;;;2.47;1.15;;;10.30;99.90;;;;;;5023392;28;20059;-82
2023/05/27 03:51:49;;;;;;;3.33;1.63;;;10.30;99.90;;;;;;5041660;28;20131;-83
2023/05/27 03:54:17;;;;;;;1.75;1.10;;;10.30;99.90;;;;;;5049847;28;20084;-83
2023/05/27 03:56:47;;;;;;;1.80;1.00;;;10.40;99.90;;;;;;5048138;28;20106;-83
2023/05/27 03:59:15;;;;;;;3.55;1.23;;;10.40;99.90;;;;;;5025579;28;20102;-85
2023/05/27 04:01:48;;;;;;;2.90;0.90;;;10.50;99.90;;;;;;5027568;28;20087;-83
2023/05/27 04:04:16;;;;;;;2.25;1.00;;;10.50;99.90;;;;;;5031213;28;20048;-84
2023/05/27 04:06:43;;;;;;;1.40;1.02;;;10.50;99.90;;;;;;5050844;28;20044;-82
2023/05/27 04:09:13;;;;;;;3.15;1.35;;;10.50;99.90;;;;;;5055204;28;20049;-85
2023/05/27 04:11:40;;;;;;;2.35;1.00;;;10.50;99.90;;;;;;5050369;28;20045;-86
2023/05/27 04:14:08;;;;;;;2.05;0.90;;;10.60;99.90;;;;;;5016626;28;20442;-83
2023/05/27 04:16:41;;;;;;;1.42;0.90;;;10.70;99.90;;;;;;5013929;28;20461;-82
2023/05/27 04:19:09;;;;;;;1.48;1.20;;;10.80;99.90;;;;;;5040473;28;20045;-83
2023/05/27 04:21:37;;;;;;;1.10;1.00;;;10.80;99.90;;;;;;5031658;28;20493;-82
2023/05/27 04:24:06;;;;;;;1.67;1.00;;;10.90;99.90;;;;;;5049236;28;20107;-81
2023/05/27 04:26:38;;;;;;;3.80;0.73;;;10.90;99.90;;;;;;5034701;28;20040;-77
2023/05/27 04:29:09;;;;;;;1.77;0.90;;;11.00;99.90;;;;;;5032260;28;20144;-78
2023/05/27 04:31:37;;;;;;;3.58;1.05;;;11.10;99.90;;;;;;5028957;28;20501;-79
2023/05/27 04:34:08;;;;;;;3.83;0.70;;;11.10;99.90;;;;;;5033993;28;20048;-79
2023/05/27 04:36:37;;;;;;;2.25;1.02;;;11.10;99.90;;;;;;5017194;28;20449;-79
2023/05/27 04:39:11;;;;;;;2.17;1.50;;;11.20;99.90;;;;;;5047056;28;20049;-78
2023/05/27 04:41:44;;;;;;;2.53;0.97;;;11.20;99.90;;;;;;5065492;28;20061;-78
2023/05/27 04:44:26;;;;;;;1.95;0.93;;;11.20;99.90;;;;;;5005687;28;20134;-78
2023/05/27 04:46:56;;;;;;;0.85;0.60;;;11.20;99.90;;;;;;5031325;28;20057;-79
2023/05/27 04:49:23;;;;;;;0.98;0.85;;;11.30;99.90;;;;;;5031640;28;20485;-80
2023/05/27 04:51:51;;;;;;;1.65;0.82;;;11.30;99.90;;;;;;5031136;28;20041;-80
2023/05/27 04:54:22;;;;;;;3.58;0.85;;;11.40;99.90;;;;;;5011344;28;20049;-80
2023/05/27 04:56:52;;;;;;;1.20;0.80;;;11.50;99.90;;;;;;5041153;28;20060;-79
2023/05/27 04:59:29;;;;;;;1.20;0.70;;;11.60;99.90;;;;;;5028622;28;20496;-80
2023/05/27 05:02:34;;;;;;;1.08;0.68;;;11.70;99.90;;;;;;5037203;28;20053;-79
2023/05/27 05:05:09;;;;;;;1.15;0.77;;;11.90;99.90;;;;;;5032279;28;20049;-79
2023/05/27 05:07:39;;;;;;;1.95;0.50;;;11.90;99.90;;;;;;5043377;28;20053;-79
2023/05/27 05:10:09;;;;;;;2.22;0.98;;;11.90;99.90;;;;;;5014913;28;20394;-79
2023/05/27 05:12:47;;;;;;;2.40;1.60;;;12.00;99.90;;;;;;5017040;28;20099;-80
2023/05/27 05:15:17;;;;;;;0.82;0.80;;;12.10;99.90;;;;;;5043191;28;20061;-80
2023/05/27 05:17:47;;;;;;;2.45;1.17;;;12.20;99.90;;;;;;5041220;28;20045;-79
2023/05/27 05:20:15;;;;;;;1.67;0.77;;;12.40;99.90;;;;;;5051108;28;20158;-79
2023/05/27 05:22:43;;;;;;;2.70;1.08;;;12.60;99.90;;;;;;5049078;28;20135;-79
2023/05/27 05:25:11;;;;;;;2.00;1.00;;;12.90;99.90;;;;;;5029225;28;20052;-78
2023/05/27 05:27:50;;;;;;;2.03;0.80;;;13.20;99.90;;;;;;5052300;28;20041;-78
2023/05/27 05:30:18;;;;;;;1.13;0.63;;;13.50;99.90;;;;;;5030159;28;20076;-80
2023/05/27 05:32:45;;;;;;;3.28;1.00;;;13.80;99.90;;;;;;5049839;28;20583;-80
2023/05/27 05:35:13;;;;;;;3.42;1.98;;;14.10;99.90;;;;;;5032099;28;20044;-79
2023/05/27 05:37:45;;;;;;;;;;;14.20;99.90;;;;;;5015581;28;20065;-78
2023/05/27 05:40:13;;;;;;;1.92;0.90;;;14.20;99.90;;;;;;5018019;28;19925;-78
2023/05/27 05:42:52;;;;;;;0.52;0.45;;;14.20;99.90;;;;;;5024391;28;20060;-79
2023/05/27 05:45:20;;;;;;;1.85;0.88;;;14.30;99.90;;;;;;5027843;28;20059;-79
2023/05/27 05:47:48;;;;;;;2.25;0.60;;;14.50;99.90;;;;;;5025223;28;20048;-82
2023/05/27 05:50:20;;;;;;;1.13;0.70;;;14.50;99.90;;;;;;5030950;28;20069;-82
2023/05/27 05:52:48;;;;;;;1.23;1.00;;;14.50;99.90;;;;;;5018171;28;20061;-84
2023/05/27 05:55:19;;;;;;;1.55;0.60;;;14.70;99.90;;;;;;5016487;28;20054;-84
2023/05/27 05:57:47;;;;;;;7.22;4.38;;;15.00;99.90;;;;;;5004176;28;20037;-84
2023/05/27 06:00:18;;;;;;;2.53;0.98;;;15.30;99.90;;;;;;5031181;28;20099;-85
2023/05/27 06:02:46;;;;;;;0.60;0.60;;;15.50;99.90;;;;;;5055977;28;20053;-83
2023/05/27 06:05:32;;;;;;;2.03;0.60;;;15.70;99.90;;;;;;5037270;28;20108;-86
2023/05/27 06:08:01;;;;;;;1.00;0.70;;;15.70;99.90;;;;;;5022788;28;20559;-79
2023/05/27 06:10:28;;;;;;;2.35;0.65;;;15.70;99.90;;;;;;5031749;28;20060;-79
2023/05/27 06:12:57;;;;;;;1.45;0.82;;;15.90;99.90;;;;;;5048565;28;20414;-79
2023/05/27 06:15:26;;;;;;;2.75;0.88;;;16.50;99.90;;;;;;5016457;28;20068;-80
2023/05/27 06:17:57;;;;;;;5.90;1.00;;;17.10;99.90;;;;;;5018327;28;20079;-80
2023/05/27 06:20:25;;;;;;;0.80;0.70;;;17.80;99.90;;;;;;5018501;28;20056;-80
2023/05/27 06:22:54;;;;;;;2.45;0.98;;;18.30;99.90;;;;;;5052012;28;20048;-80
2023/05/27 06:25:54;;;;;;;1.85;1.15;;;18.90;99.90;;;;;;5003283;28;20052;-82
2023/05/27 06:28:23;;;;;;;3.38;1.13;;;19.70;99.90;;;;;;5052169;28;20135;-79
2023/05/27 06:30:52;;;;;;;2.08;0.70;;;20.00;97.40;;;;;;5013267;28;20046;-79
2023/05/27 06:33:21;;;;;;;1.50;0.90;;;19.50;95.40;;;;;;4996552;28;20057;-80
2023/05/27 06:35:50;;;;;;;1.35;0.80;;;19.20;94.40;;;;;;5031965;28;20144;-82
2023/05/27 06:38:20;;;;;;;2.40;1.17;;;18.80;95.00;;;;;;5032641;28;20060;-81
2023/05/27 06:40:51;;;;;;;3.28;1.48;;;18.80;94.40;;;;;;5049124;28;20106;-81
2023/05/27 06:43:18;;;;;;;3.42;1.88;;;19.20;95.20;;;;;;5033040;28;20048;-79
2023/05/27 06:46:04;;;;;;;4.82;1.02;;;19.70;93.00;;;;;;5033958;28;20052;-79
2023/05/27 06:49:06;;;;;;;2.45;1.70;;;19.20;92.80;;;;;;5013109;28;20521;-79
2023/05/27 06:51:38;;;;;;;0.90;0.90;;;18.90;93.20;;;;;;5039888;28;20049;-80
2023/05/27 06:54:06;;;;;;;4.25;1.55;;;19.20;90.40;;;;;;5045526;28;20045;-79
2023/05/27 06:56:42;;;;;;;3.45;1.73;;;18.90;88.70;;;;;;5022181;28;20049;-79
2023/05/27 06:59:43;;;;;;;2.97;1.77;;;18.50;90.70;;;;;;5021501;28;20512;-79
2023/05/27 07:02:12;;;;;;;3.50;0.90;;;18.50;91.00;;;;;;5020307;28;20081;-79
2023/05/27 07:04:53;;;;;;;4.50;1.08;;;19.00;91.20;;;;;;5016892;28;20059;-81
2023/05/27 07:07:24;;;;;;;2.28;1.10;;;19.90;92.20;;;;;;5013061;28;20077;-80
2023/05/27 07:10:04;;;;;;;2.15;0.90;;;21.00;85.40;;;;;;5044734;28;20072;-80
2023/05/27 07:12:32;;;;;;;1.55;0.90;;;21.60;77.70;;;;;;5029044;28;20067;-80
2023/05/27 07:15:17;;;;;;;3.65;0.70;;;21.90;74.90;;;;;;5040870;28;20049;-81
2023/05/27 07:17:46;;;;;;;2.97;0.73;;;21.30;73.40;;;;;;5023891;28;20072;-80
2023/05/27 07:20:14;;;;;;;5.43;0.73;;;21.80;73.90;;;;;;5040128;28;20558;-80
2023/05/27 07:22:45;;;;;;;2.15;0.95;;;21.40;66.80;;;;;;5040437;28;20044;-80
2023/05/27 07:25:14;;;;;;;3.80;0.77;;;20.60;69.00;;;;;;5031345;28;20045;-80
2023/05/27 07:27:42;;;;;;;0.85;0.80;;;19.70;70.50;;;;;;5041011;28;20049;-82
2023/05/27 07:30:11;;;;;;;1.40;1.00;;;19.00;73.20;;;;;;5041946;28;20278;-82
2023/05/27 07:32:46;;;;;;;3.85;0.70;;;18.40;76.30;;;;;;5025645;28;20041;-82
2023/05/27 07:35:16;;;;;;;1.27;0.60;;;17.90;73.70;;;;;;5038933;28;20431;-82
2023/05/27 07:37:44;;;;;;;2.25;0.60;;;18.50;73.70;;;;;;5041230;28;20048;-83
2023/05/27 07:40:12;;;;;;;2.55;0.80;;;20.10;72.10;;;;;;5022264;28;20502;-83
2023/05/27 07:42:41;;;;;;;4.47;0.80;;;21.70;59.80;;;;;;5006272;28;20080;-83
2023/05/27 07:45:12;;;;;;;2.83;0.60;;;22.90;57.50;;;;;;5025694;28;20094;-81
2023/05/27 07:47:41;;;;;;;1.17;0.60;;;24.10;54.70;;;;;;5041970;28;20308;-80
2023/05/27 07:50:11;;;;;;;2.92;0.60;;;25.10;52.50;;;;;;5045792;28;20048;-82
2023/05/27 07:52:41;;;;;;;7.65;0.77;;;25.70;50.90;;;;;;5022476;28;20041;-83
2023/05/27 07:55:29;;;;;;;1.55;1.05;;;26.30;49.50;;;;;;5029133;28;20044;-82
2023/05/27 07:57:57;;;;;;;1.17;0.60;;;26.70;47.30;;;;;;5012006;28;20049;-76
2023/05/27 08:00:30;;;;;;;3.05;0.70;;;26.20;48.40;;;;;;5011125;28;20038;-84
2023/05/27 08:02:58;;;;;;;1.02;0.60;;;24.70;47.20;;;;;;5046375;28;20061;-78
2023/05/27 08:05:50;;;;;;;2.55;0.77;;;23.20;47.90;;;;;;4988930;28;20121;-79
2023/05/27 08:08:36;;;;;;;1.10;0.90;;;21.70;49.10;;;;;;5041865;28;20053;-82
2023/05/27 08:11:27;;;;;;;3.78;0.60;;;20.60;53.70;;;;;;5046748;28;20060;-77
2023/05/27 08:14:15;;;;;;;1.02;0.80;;;20.00;54.40;;;;;;5035020;28;20048;-82
2023/05/27 08:17:02;;;;;;;13.43;1.13;;;19.70;54.80;;;;;;5041654;28;20045;-80
2023/05/27 08:19:47;;;;;;;5.30;1.02;;;19.90;55.90;;;;;;5032390;28;20528;-82
2023/05/27 08:22:46;;;;;;;14.23;1.25;;;20.70;55.10;;;;;;5007222;28;20076;-80
2023/05/27 08:25:25;;;;;;;2.63;0.88;;;20.50;56.80;;;;;;5047211;28;20049;-81
2023/05/27 08:28:19;;;;;;;3.78;0.73;;;19.80;56.10;;;;;;4998251;28;20048;-79
2023/05/27 08:30:54;;;;;;;5.30;0.80;;;19.20;57.40;;;;;;5048281;28;20052;-81
2023/05/27 08:33:25;;;;;;;1.58;0.60;;;18.60;59.20;;;;;;5020637;28;20050;-80
2023/05/27 08:35:53;;;;;;;1.83;0.88;;;18.40;62.50;;;;;;5015703;28;20047;-81
2023/05/27 08:38:23;;;;;;;4.80;0.90;;;18.00;66.50;;;;;;5027413;28;20045;-79
2023/05/27 08:40:55;;;;;;;5.55;1.00;;;17.60;68.60;;;;;;5046238;28;20106;-78
2023/05/27 08:43:23;;;;;;;3.55;0.80;;;17.30;70.70;;;;;;5025821;28;20115;-78
2023/05/27 08:45:51;;;;;;;1.65;0.85;;;17.10;70.70;;;;;;5015875;28;20048;-81
2023/05/27 08:48:22;;;;;;;6.95;1.30;;;16.90;71.10;;;;;;5010077;28;20037;-78
2023/05/27 08:50:49;;;;;;;0.70;0.60;;;16.90;71.70;;;;;;5033119;28;20068;-79
2023/05/27 08:53:19;;;;;;;4.38;1.73;;;16.90;71.90;;;;;;5018679;28;20060;-79
2023/05/27 08:55:49;;;;;;;5.70;1.67;;;17.10;72.00;;;;;;5035621;28;20063;-78
2023/05/27 08:58:21;;;;;;;1.20;0.80;;;17.40;72.60;;;;;;5009866;28;20065;-77
2023/05/27 09:00:52;;;;;;;;;;;18.50;69.20;;;;;;5044668;28;20076;-77
2023/05/27 09:03:22;;;;;;;2.13;0.60;;;20.50;66.00;;;;;;5034577;28;19924;-79
2023/05/27 09:05:50;;;;;;;9.75;0.98;;;21.70;59.60;;;;;;5045611;28;20932;-79
2023/05/27 09:08:18;;;;;;;4.00;0.80;;;22.30;58.40;;;;;;5053211;28;20049;-78
2023/05/27 09:10:49;;;;;;;2.75;0.88;;;22.90;58.30;;;;;;5051357;28;20534;-80
2023/05/27 09:13:28;;;;;;;2.53;0.80;;;21.90;55.30;;;;;;5038000;28;20466;-79
2023/05/27 09:16:01;;;;;;;3.25;0.70;;;20.40;56.60;;;;;;5032153;28;20421;-80
2023/05/27 09:18:30;;;;;;;1.50;0.75;;;19.30;59.00;;;;;;5055635;28;20041;-78
2023/05/27 09:20:58;;;;;;;3.03;1.38;;;18.80;59.20;;;;;;5033808;28;20329;-75
2023/05/27 09:23:26;;;;;;;2.08;0.75;;;19.60;60.00;;;;;;5018003;28;20040;-78
2023/05/27 09:25:55;;;;;;;0.70;0.40;;;21.40;58.70;;;;;;5046388;28;20053;-77
2023/05/27 09:28:24;;;;;;;2.05;0.63;;;23.00;55.10;;;;;;5050944;28;20060;-79
2023/05/27 09:31:02;;;;;;;0.68;0.50;;;24.30;53.60;;;;;;5049808;28;20558;-78
2023/05/27 09:33:33;;;;;;;1.88;1.08;;;25.50;50.40;;;;;;5032810;28;20452;-79
2023/05/27 09:36:01;;;;;;;2.22;0.60;;;26.20;48.80;;;;;;5038136;28;20044;-79
2023/05/27 09:38:30;;;;;;;0.68;0.52;;;26.80;46.90;;;;;;5071972;28;20044;-75
2023/05/27 09:40:59;;;;;;;3.70;0.50;;;26.80;46.00;;;;;;5069889;28;20147;-79
2023/05/27 09:43:28;;;;;;;2.35;0.60;;;27.40;46.60;;;;;;5026549;28;20076;-80
2023/05/27 09:46:03;;;;;;;2.60;0.70;;;27.70;45.90;;;;;;5029786;28;20048;-77
2023/05/27 09:48:33;;;;;;;3.35;0.60;;;27.90;46.70;;;;;;5029007;28;20056;-77
2023/05/27 09:51:01;;;;;;;1.27;0.95;;;27.80;44.60;;;;;;5024800;28;20045;-77
2023/05/27 09:53:30;;;;;;;0.93;0.88;;;28.20;44.60;;;;;;5052326;28;20052;-76
2023/05/27 09:55:59;;;;;;;1.48;0.88;;;28.80;43.50;;;;;;5053787;28;20053;-76
2023/05/27 09:58:29;;;;;;;1.98;0.60;;;28.20;42.80;;;;;;5032297;28;20518;-78
2023/05/27 10:01:00;;;;;;;1.45;0.50;;;27.50;42.00;;;;;;5030125;28;20056;-75
2023/05/27 10:03:29;;;;;;;1.50;1.30;;;26.40;43.50;;;;;;5033780;28;20052;-79
2023/05/27 10:05:57;;;;;;;2.38;1.10;;;25.20;44.80;;;;;;5037793;28;20053;-77
2023/05/27 10:08:26;;;;;;;2.28;0.73;;;24.30;46.20;;;;;;5029886;28;20103;-77
2023/05/27 10:10:55;;;;;;;3.85;0.65;;;24.10;47.70;;;;;;5032547;28;20053;-82
2023/05/27 10:13:26;;;;;;;3.17;0.77;;;25.00;46.70;;;;;;5051565;28;20053;-78
2023/05/27 10:15:53;;;;;;;2.00;0.80;;;25.60;46.50;;;;;;5042903;28;20053;-78
2023/05/27 10:18:27;;;;;;;2.20;0.63;;;26.30;46.70;;;;;;5051401;28;20521;-78
2023/05/27 10:20:55;;;;;;;4.30;1.00;;;25.80;46.30;;;;;;5023040;28;20053;-77
2023/05/27 10:23:26;;;;;;;1.05;0.68;;;24.60;47.60;;;;;;5014742;28;20045;-77
2023/05/27 10:25:56;;;;;;;6.37;0.70;;;23.70;48.40;;;;;;5034952;28;20045;-77
2023/05/27 10:28:27;;;;;;;8.05;0.80;;;23.30;49.10;;;;;;5041357;28;20300;-77
2023/05/27 10:31:05;;;;;;;0.88;0.60;;;23.60;48.80;;;;;;5039180;28;20501;-77
2023/05/27 10:33:36;;;;;;;1.80;0.63;;;24.00;48.70;;;;;;5039175;28;20057;-77
2023/05/27 10:36:10;;;;;;;2.15;0.80;;;24.90;47.90;;;;;;5024324;28;20060;-78
2023/05/27 10:38:40;;;;;;;3.65;0.80;;;25.30;47.30;;;;;;5038587;28;20054;-77
2023/05/27 10:41:08;;;;;;;4.13;0.73;;;24.50;46.60;;;;;;5026352;28;20049;-77
2023/05/27 10:43:37;;;;;;;1.10;0.70;;;23.50;48.00;;;;;;5030110;28;20135;-77
2023/05/27 10:46:14;;;;;;;1.23;0.60;;;22.50;50.40;;;;;;5016378;28;20088;-79
2023/05/27 10:48:42;;;;;;;1.08;0.70;;;21.60;52.00;;;;;;5041147;28;20048;-80
2023/05/27 10:51:10;;;;;;;1.85;0.80;;;20.80;52.20;;;;;;5048616;28;20103;-80
2023/05/27 10:53:38;;;;;;;3.20;0.55;;;20.20;54.10;;;;;;5040836;28;20128;-79
2023/05/27 10:56:08;;;;;;;1.85;0.45;;;19.60;54.00;;;;;;5021899;28;20727;-79
2023/05/27 10:58:39;;;;;;;1.90;0.60;;;19.00;53.70;;;;;;5043297;28;20041;-79
2023/05/27 11:01:12;;;;;;;1.80;0.50;;;18.50;53.90;;;;;;5032809;28;20533;-79
2023/05/27 11:03:44;;;;;;;3.30;0.47;;;18.10;54.90;;;;;;5048485;28;20045;-78
2023/05/27 11:06:13;;;;;;;1.95;0.90;;;17.70;56.70;;;;;;5040120;28;20052;-79
2023/05/27 11:08:40;;;;;;;2.53;0.95;;;17.40;58.00;;;;;;5030793;28;20052;-79
2023/05/27 11:11:09;;;;;;;0.70;0.60;;;17.30;58.60;;;;;;5011913;28;20398;-79
2023/05/27 11:13:43;;;;;;;3.55;1.00;;;17.30;58.80;;;;;;5041953;28;20115;-81
2023/05/27 11:16:13;;;;;;;1.38;0.90;;;17.40;58.10;;;;;;5044347;28;20612;-80
2023/05/27 11:18:43;;;;;;;2.67;1.00;;;18.00;59.60;;;;;;5039446;28;20088;-80
2023/05/27 11:21:12;;;;;;;3.25;0.90;;;18.50;61.40;;;;;;5028947;28;20159;-81
2023/05/27 11:23:43;;;;;;;5.43;1.67;;;18.60;60.60;;;;;;5050346;28;20059;-77
2023/05/27 11:26:16;;;;;;;5.28;1.08;;;18.70;62.40;;;;;;5049937;28;20057;-80
2023/05/27 11:28:50;;;;;;;3.35;0.90;;;18.70;62.40;;;;;;5048445;28;20584;-80
2023/05/27 11:31:19;;;;;;;2.17;1.30;;;18.70;62.60;;;;;;5048957;28;20110;-78
2023/05/27 11:33:50;;;;;;;1.85;0.70;;;18.70;64.40;;;;;;5050356;28;20041;-77
2023/05/27 11:36:20;;;;;;;3.58;0.90;;;19.30;61.20;;;;;;5052175;28;20187;-76
2023/05/27 11:38:53;;;;;;;0.82;0.63;;;19.50;58.80;;;;;;5049974;28;20148;-76
2023/05/27 11:41:23;;;;;;;3.30;1.00;;;19.30;57.00;;;;;;5006942;28;1205928;-76
2023/05/27 11:43:55;;;;;;;7.03;1.20;;;18.70;58.30;;;;;;5053774;28;20052;-78
2023/05/27 11:46:24;;;;;;;4.90;1.20;;;18.10;60.80;;;;;;5050456;28;20055;-77
2023/05/27 11:48:52;;;;;;;4.95;1.30;;;17.50;63.50;;;;;;5050110;28;20102;-78
2023/05/27 11:51:27;;;;;;;5.95;1.27;;;17.00;65.60;;;;;;5032336;28;20045;-77
2023/05/27 11:53:55;;;;;;;3.10;0.80;;;16.50;66.80;;;;;;5045981;28;20087;-78
2023/05/27 11:56:24;;;;;;;1.40;0.50;;;16.10;69.50;;;;;;5032513;28;20060;-78
2023/05/27 11:58:53;;;;;;;4.45;0.70;;;15.70;70.20;;;;;;5032041;28;20497;-77
2023/05/27 12:01:21;;;;;;;1.40;0.88;;;15.60;70.80;;;;;;5048640;28;20053;-78
2023/05/27 12:03:49;;;;;;;2.15;0.88;;;15.70;71.90;;;;;;5040809;28;20505;-79
2023/05/27 12:06:16;;;;;;;5.35;0.77;;;15.80;70.50;;;;;;5016208;28;20041;-78
2023/05/27 12:08:45;;;;;;;3.10;0.88;;;16.00;72.20;;;;;;5029825;28;20588;-80
2023/05/27 12:11:13;;;;;;;3.17;0.80;;;16.60;72.50;;;;;;5042083;28;20049;-80
2023/05/27 12:13:40;;;;;;;2.28;1.00;;;17.50;71.50;;;;;;5052857;28;20049;-79
2023/05/27 12:16:09;;;;;;;2.95;0.85;;;19.30;67.70;;;;;;5032813;28;20411;-79
2023/05/27 12:18:38;;;;;;;6.20;0.90;;;20.70;65.30;;;;;;5050368;28;20509;-79
2023/05/27 12:21:06;;;;;;;3.15;0.75;;;22.10;59.30;;;;;;5016223;28;20091;-80
2023/05/27 12:23:35;;;;;;;9.40;1.20;;;23.50;56.80;;;;;;5050607;28;20149;-80
2023/05/27 12:26:03;;;;;;;1.63;1.00;;;25.10;53.40;;;;;;5036394;28;20060;-78
2023/05/27 12:28:33;;;;;;;2.67;1.10;;;26.60;51.60;;;;;;5019195;28;20076;-79
2023/05/27 12:31:02;;;;;;;1.63;0.90;;;27.80;50.30;;;;;;5036060;28;20275;-77
2023/05/27 12:33:32;;;;;;;1.35;0.85;;;28.40;47.70;;;;;;5035749;28;20049;-76
2023/05/27 12:36:00;;;;;;;1.50;0.70;;;28.80;46.50;;;;;;5049760;28;20056;-77
2023/05/27 12:38:27;;;;;;;1.10;0.60;;;28.80;45.20;;;;;;5050772;28;20049;-79
2023/05/27 12:40:56;;;;;;;3.25;0.80;;;29.00;44.50;;;;;;5047956;28;20131;-77
2023/05/27 12:43:24;;;;;;;1.92;0.60;;;29.40;45.40;;;;;;5046228;28;20527;-75
2023/05/27 12:45:52;;;;;;;0.90;0.55;;;29.60;43.60;;;;;;5031374;28;20049;-78
2023/05/27 12:48:21;;;;;;;3.63;0.65;;;29.00;44.30;;;;;;5046926;28;20091;-75
2023/05/27 12:50:50;;;;;;;1.35;1.08;;;27.40;45.20;;;;;;5043978;28;20060;-75
2023/05/27 12:53:18;;;;;;;3.53;1.33;;;27.00;46.30;;;;;;5028946;28;20060;-75
2023/05/27 12:55:46;;;;;;;1.60;0.73;;;27.50;45.80;;;;;;5033579;28;20575;-85
2023/05/27 12:58:14;;;;;;;1.30;0.80;;;28.40;45.70;;;;;;5019056;28;20148;-82
2023/05/27 13:00:42;;;;;;;1.52;0.85;;;28.90;44.20;;;;;;5036088;28;20041;-80
2023/05/27 13:03:10;;;;;;;3.75;1.00;;;28.10;43.00;;;;;;5025993;28;20072;-81
2023/05/27 13:05:39;;;;;;;3.85;0.95;;;27.40;44.20;;;;;;5046372;28;20061;-84